Time;durP1;ratioP1;P1;durP2;ratioP2;P2;SDS_P1;SDS_P2;PMS_P1;PMS_P2;Temp;Humidity;BMP_temperature;BMP_pressure;BME280_temperature;BME280_humidity;BME280_pressure;Samples;Min_cycle;Max_cycle;Signal;HPM_P1;HPM_P2
2022/11/22 00:02:47;;;;;;;4.20;2.45;;;19.30;54.80;;;;;;6219538;28;20022;-68
2022/11/22 00:05:47;;;;;;;4.53;2.20;;;19.30;54.80;;;;;;6236041;28;20028;-69
2022/11/22 00:08:48;;;;;;;2.63;2.05;;;19.20;54.70;;;;;;6243498;28;20333;-69
2022/11/22 00:11:49;;;;;;;5.30;2.47;;;19.20;54.70;;;;;;6241365;28;20036;-68
2022/11/22 00:14:49;;;;;;;3.78;2.28;;;19.30;54.80;;;;;;6236216;28;20026;-68
2022/11/22 00:17:50;;;;;;;3.28;2.15;;;19.30;54.80;;;;;;6219097;28;20053;-69
2022/11/22 00:20:50;;;;;;;3.40;2.20;;;19.20;54.70;;;;;;6233824;28;20037;-69
2022/11/22 00:23:56;;;;;;;3.53;2.17;;;19.20;54.50;;;;;;6242775;28;20057;-69
2022/11/22 00:26:56;;;;;;;3.08;2.13;;;19.20;54.70;;;;;;6219998;28;20026;-68
2022/11/22 00:29:57;;;;;;;4.40;2.40;;;19.20;54.70;;;;;;6236869;28;20053;-68
2022/11/22 00:32:58;;;;;;;4.07;2.30;;;19.20;54.70;;;;;;6218990;28;20022;-68
2022/11/22 00:35:58;;;;;;;2.60;2.10;;;19.30;55.50;;;;;;6232542;28;20029;-65
2022/11/22 00:38:59;;;;;;;3.70;2.55;;;19.30;54.60;;;;;;6243060;28;20034;-66
2022/11/22 00:42:00;;;;;;;3.15;2.30;;;19.30;54.80;;;;;;6220747;28;20266;-66
2022/11/22 00:45:00;;;;;;;2.55;1.90;;;19.30;54.80;;;;;;6223366;28;20306;-67
2022/11/22 00:48:01;;;;;;;2.70;2.00;;;19.20;54.80;;;;;;6242787;28;20104;-67
2022/11/22 00:51:01;;;;;;;2.50;1.90;;;19.30;54.80;;;;;;6230224;28;20022;-66
2022/11/22 00:54:02;;;;;;;2.92;2.20;;;19.20;54.70;;;;;;6217819;28;20042;-66
2022/11/22 00:57:03;;;;;;;2.70;2.08;;;19.20;54.80;;;;;;6238401;28;20033;-66
2022/11/22 01:00:05;;;;;;;2.63;1.92;;;19.20;54.70;;;;;;6239213;28;20018;-66
2022/11/22 01:03:06;;;;;;;2.90;2.20;;;19.20;54.70;;;;;;6218453;28;20100;-68
2022/11/22 01:06:06;;;;;;;2.33;1.85;;;19.20;54.70;;;;;;6228753;28;20055;-68
2022/11/22 01:09:16;;;;;;;4.15;2.20;;;19.20;54.70;;;;;;6243009;28;20040;-68
2022/11/22 01:12:17;;;;;;;3.10;2.13;;;19.20;54.70;;;;;;6237934;28;20026;-68
2022/11/22 01:15:18;;;;;;;2.72;1.95;;;19.20;54.40;;;;;;6239315;28;20266;-69
2022/11/22 01:18:18;;;;;;;3.00;2.35;;;19.20;54.70;;;;;;6218222;28;20032;-69
2022/11/22 01:21:19;;;;;;;2.70;2.08;;;19.20;54.60;;;;;;6228602;28;20112;-69
2022/11/22 01:24:19;;;;;;;3.45;1.90;;;19.20;54.70;;;;;;6242542;28;20388;-68
2022/11/22 01:27:20;;;;;;;2.70;2.00;;;19.20;54.60;;;;;;6223760;28;20034;-69
2022/11/22 01:30:21;;;;;;;2.90;2.00;;;19.30;54.80;;;;;;6219539;28;20140;-69
2022/11/22 01:33:22;;;;;;;2.70;1.92;;;19.20;54.70;;;;;;6242237;28;20026;-69
2022/11/22 01:36:23;;;;;;;3.83;2.33;;;19.20;54.70;;;;;;6232931;28;20030;-69
2022/11/22 01:39:23;;;;;;;3.00;2.10;;;19.20;54.70;;;;;;6217769;28;20046;-69
2022/11/22 01:42:49;;;;;;;3.78;2.13;;;19.20;54.30;;;;;;6234490;28;20025;-69
2022/11/22 01:45:54;;;;;;;;;;;19.20;54.60;;;;;;6239245;28;20010;-68
2022/11/22 01:49:04;;;;;;;3.03;2.05;;;19.20;54.60;;;;;;6218033;28;19905;-68
2022/11/22 01:52:15;;;;;;;3.05;2.28;;;19.20;54.70;;;;;;6230599;28;20026;-69
2022/11/22 01:55:15;;;;;;;3.38;2.20;;;19.20;54.70;;;;;;6246632;28;20069;-68
2022/11/22 01:58:17;;;;;;;2.92;2.17;;;19.20;54.70;;;;;;6224731;28;20087;-69
2022/11/22 02:01:19;;;;;;;3.78;2.38;;;19.20;54.70;;;;;;6227301;28;20028;-69
2022/11/22 02:04:22;;;;;;;4.13;2.38;;;19.20;54.70;;;;;;6246538;28;20104;-68
2022/11/22 02:07:30;;;;;;;2.72;1.98;;;19.20;54.70;;;;;;6233085;28;20519;-69
2022/11/22 02:10:34;;;;;;;2.72;2.15;;;19.20;54.70;;;;;;6233224;28;20495;-68
2022/11/22 02:13:41;;;;;;;2.83;2.00;;;19.20;54.80;;;;;;6224057;28;20041;-68
2022/11/22 02:16:44;;;;;;;3.33;2.03;;;19.20;54.60;;;;;;6227795;28;20017;-68
2022/11/22 02:19:49;;;;;;;2.70;2.17;;;19.20;54.70;;;;;;6246586;28;20080;-69
2022/11/22 02:23:18;;;;;;;3.67;2.22;;;19.20;54.80;;;;;;6231269;28;20061;-69
2022/11/22 02:26:22;;;;;;;2.65;1.98;;;19.30;54.70;;;;;;6222882;28;20022;-68
2022/11/22 02:29:24;;;;;;;3.88;2.30;;;19.20;54.60;;;;;;6245897;28;20025;-68
2022/11/22 02:32:24;;;;;;;2.90;2.30;;;19.20;54.70;;;;;;6235523;28;20428;-66
2022/11/22 02:35:27;;;;;;;2.17;1.75;;;19.20;54.70;;;;;;6221061;28;20088;-69
2022/11/22 02:38:34;;;;;;;2.92;1.90;;;19.20;54.60;;;;;;6238905;28;20448;-69
2022/11/22 02:41:36;;;;;;;2.40;1.95;;;19.20;54.70;;;;;;6244056;28;20040;-68
2022/11/22 02:44:37;;;;;;;3.97;2.42;;;19.20;54.70;;;;;;6221212;28;20037;-69
2022/11/22 02:47:38;;;;;;;2.90;2.08;;;19.20;54.60;;;;;;6230525;28;20091;-68
2022/11/22 02:50:39;;;;;;;2.92;2.22;;;19.20;54.60;;;;;;6246123;28;20029;-68
2022/11/22 02:53:39;;;;;;;2.80;2.00;;;19.20;54.60;;;;;;6227956;28;20071;-68
2022/11/22 02:56:40;;;;;;;2.92;2.13;;;19.20;54.70;;;;;;6221557;28;20503;-68
2022/11/22 02:59:41;;;;;;;3.03;2.00;;;19.20;54.60;;;;;;6245454;28;20032;-69
2022/11/22 03:02:42;;;;;;;2.78;2.17;;;19.30;54.80;;;;;;6236301;28;20060;-69
2022/11/22 03:05:42;;;;;;;3.55;2.45;;;19.20;54.70;;;;;;6221028;28;20030;-68
2022/11/22 03:08:43;;;;;;;2.78;2.17;;;19.20;54.60;;;;;;6235963;28;20527;-68
2022/11/22 03:11:44;;;;;;;3.30;2.55;;;19.20;54.70;;;;;;6223172;28;20026;-68
2022/11/22 03:14:44;;;;;;;2.92;2.40;;;19.20;54.70;;;;;;6244270;28;20099;-67
2022/11/22 03:17:45;;;;;;;2.83;1.88;;;19.20;54.70;;;;;;6238296;28;20028;-67
2022/11/22 03:20:45;;;;;;;2.83;2.20;;;19.20;54.70;;;;;;6220138;28;20481;-66
2022/11/22 03:23:46;;;;;;;2.80;1.75;;;19.20;54.40;;;;;;6233265;28;20040;-67
2022/11/22 03:26:49;;;;;;;2.40;1.90;;;19.20;54.70;;;;;;6244401;28;20320;-67
2022/11/22 03:29:49;;;;;;;2.55;2.00;;;19.20;54.70;;;;;;6222795;28;20045;-66
2022/11/22 03:32:50;;;;;;;3.17;2.03;;;19.20;54.70;;;;;;6225214;28;20021;-66
2022/11/22 03:35:55;;;;;;;2.63;1.77;;;19.20;54.70;;;;;;6243674;28;20041;-66
2022/11/22 03:38:57;;;;;;;2.75;2.03;;;19.20;54.60;;;;;;6230949;28;20388;-66
2022/11/22 03:41:58;;;;;;;3.95;2.40;;;19.20;54.70;;;;;;6219594;28;20452;-66
2022/11/22 03:44:58;;;;;;;2.85;2.10;;;19.20;54.70;;;;;;6241124;28;20040;-66
2022/11/22 03:47:59;;;;;;;2.50;2.00;;;19.20;54.60;;;;;;6239806;28;20117;-66
2022/11/22 03:51:06;;;;;;;3.05;2.03;;;19.20;54.60;;;;;;6219418;28;20697;-66
2022/11/22 03:54:06;;;;;;;2.47;2.00;;;19.20;54.70;;;;;;6232355;28;20074;-68
2022/11/22 03:57:07;;;;;;;4.10;2.38;;;19.20;54.70;;;;;;6243707;28;20033;-68
2022/11/22 04:00:08;;;;;;;1.95;1.67;;;19.20;54.70;;;;;;6223432;28;20026;-69
2022/11/22 04:03:09;;;;;;;2.42;1.88;;;19.20;54.60;;;;;;6223550;28;20032;-69
2022/11/22 04:06:10;;;;;;;2.83;2.10;;;19.20;54.60;;;;;;6243908;28;20017;-69
2022/11/22 04:09:10;;;;;;;3.75;2.28;;;19.20;54.70;;;;;;6232692;28;20025;-69
2022/11/22 04:12:11;;;;;;;2.97;2.20;;;19.20;54.70;;;;;;6243568;28;20060;-69
2022/11/22 04:15:11;;;;;;;2.80;2.30;;;19.20;54.70;;;;;;6223677;28;20121;-68
2022/11/22 04:18:13;;;;;;;2.60;1.75;;;19.20;54.70;;;;;;6221117;28;20056;-68
2022/11/22 04:27:51;;;;;;;2.83;2.05;;;19.20;54.60;;;;;;6218660;28;20030;-69
2022/11/22 04:34:11;;;;;;;2.38;1.85;;;19.20;54.60;;;;;;6234855;28;20038;-68
2022/11/22 04:37:12;;;;;;;3.08;1.92;;;19.20;54.60;;;;;;6218559;28;20349;-68
2022/11/22 04:40:12;;;;;;;2.13;1.75;;;19.20;54.70;;;;;;6234234;28;20044;-68
2022/11/22 04:46:41;;;;;;;3.15;2.33;;;19.20;54.60;;;;;;6218905;28;20069;-68
2022/11/22 04:49:42;;;;;;;2.75;1.90;;;19.20;54.70;;;;;;6218995;28;20167;-68
2022/11/22 04:52:55;;;;;;;2.78;2.25;;;19.20;54.60;;;;;;6218240;28;20119;-69
2022/11/22 04:55:55;;;;;;;2.80;2.15;;;19.20;54.60;;;;;;6218638;28;20053;-68
2022/11/22 04:58:56;;;;;;;2.83;2.05;;;19.20;54.70;;;;;;6218014;28;20058;-68
2022/11/22 05:01:56;;;;;;;3.28;2.17;;;19.20;54.70;;;;;;6218365;28;20066;-68
2022/11/22 05:04:57;;;;;;;2.75;1.83;;;19.20;54.70;;;;;;6218285;28;20033;-68
2022/11/22 05:07:58;;;;;;;3.10;2.20;;;19.20;54.60;;;;;;6218149;28;20026;-68
2022/11/22 05:10:59;;;;;;;2.83;2.10;;;19.20;54.60;;;;;;6233301;28;20060;-68
2022/11/22 05:13:59;;;;;;;2.97;1.98;;;19.20;54.60;;;;;;6241589;28;20068;-68
2022/11/22 05:17:00;;;;;;;2.40;2.10;;;19.20;54.70;;;;;;6217873;28;20050;-68
2022/11/22 05:20:00;;;;;;;2.45;2.13;;;19.20;54.60;;;;;;6226514;28;20018;-68
2022/11/22 05:26:24;;;;;;;3.00;2.17;;;19.20;54.60;;;;;;6225071;28;20021;-68
2022/11/22 05:29:25;;;;;;;3.33;2.08;;;19.20;54.60;;;;;;6223081;28;20302;-69
2022/11/22 05:32:28;;;;;;;3.10;2.22;;;19.20;55.30;;;;;;6222842;28;20092;-69
2022/11/22 05:35:28;;;;;;;3.28;2.22;;;19.20;54.60;;;;;;6233163;28;20034;-68
2022/11/22 05:38:29;;;;;;;3.10;2.05;;;19.20;54.70;;;;;;6247011;28;20026;-67
2022/11/22 05:41:30;;;;;;;2.80;2.20;;;19.20;54.60;;;;;;6229954;28;20053;-68
2022/11/22 05:44:30;;;;;;;2.75;2.10;;;19.20;54.60;;;;;;6223571;28;20104;-68
2022/11/22 05:47:35;;;;;;;2.92;2.33;;;19.20;54.60;;;;;;6247378;28;20400;-68
2022/11/22 05:50:35;;;;;;;3.33;2.60;;;19.20;54.60;;;;;;6238099;28;20033;-68
2022/11/22 05:53:37;;;;;;;3.05;2.08;;;19.20;54.70;;;;;;6222287;28;20081;-69
2022/11/22 05:56:37;;;;;;;3.33;2.30;;;19.20;54.60;;;;;;6239459;28;20040;-68
2022/11/22 05:59:38;;;;;;;3.30;2.30;;;19.20;54.60;;;;;;6246862;28;20057;-68
2022/11/22 06:02:39;;;;;;;2.92;2.30;;;19.20;54.60;;;;;;6221875;28;20049;-68
2022/11/22 06:05:39;;;;;;;3.28;2.30;;;19.20;54.60;;;;;;6230202;28;20017;-68
2022/11/22 06:08:42;;;;;;;2.72;2.10;;;19.20;54.60;;;;;;6246322;28;20071;-68
2022/11/22 06:11:42;;;;;;;2.65;2.25;;;19.20;54.60;;;;;;6240890;28;20087;-68
2022/11/22 06:14:44;;;;;;;2.65;2.17;;;19.20;54.60;;;;;;6246551;28;20037;-68
2022/11/22 06:17:45;;;;;;;2.90;2.30;;;19.30;54.70;;;;;;6223070;28;20033;-68
2022/11/22 06:20:46;;;;;;;5.00;2.30;;;19.30;54.70;;;;;;6228395;28;20025;-69
2022/11/22 06:23:46;;;;;;;3.13;2.30;;;19.30;54.70;;;;;;6246682;28;21153;-68
2022/11/22 06:26:47;;;;;;;3.33;2.20;;;19.30;54.70;;;;;;6232250;28;20037;-68
2022/11/22 06:29:47;;;;;;;2.78;2.30;;;19.30;54.80;;;;;;6221469;28;20026;-68
2022/11/22 06:32:48;;;;;;;2.80;2.08;;;19.30;54.70;;;;;;6221933;28;20370;-67
2022/11/22 06:35:49;;;;;;;2.92;2.13;;;19.30;54.50;;;;;;6225707;28;20115;-70
2022/11/22 06:38:50;;;;;;;2.90;2.13;;;19.30;54.80;;;;;;6245232;28;20115;-68
2022/11/22 06:41:50;;;;;;;3.63;2.42;;;19.30;54.80;;;;;;6233737;28;20026;-69
2022/11/22 06:44:51;;;;;;;3.63;2.58;;;19.30;54.80;;;;;;6221645;28;20018;-69
2022/11/22 06:47:52;;;;;;;3.28;2.25;;;19.30;54.90;;;;;;6240869;28;20024;-69
2022/11/22 06:50:58;;;;;;;3.10;2.38;;;19.30;54.90;;;;;;6242763;28;20028;-69
2022/11/22 06:53:58;;;;;;;3.53;2.25;;;19.30;54.80;;;;;;6220634;28;20057;-68
2022/11/22 06:56:59;;;;;;;2.88;2.03;;;19.30;54.90;;;;;;6232494;28;20492;-69
2022/11/22 06:59:59;;;;;;;3.03;2.33;;;19.30;55.00;;;;;;6239101;28;20132;-68
2022/11/22 07:03:00;;;;;;;3.10;2.03;;;19.30;54.90;;;;;;6245148;28;20025;-69
2022/11/22 07:06:02;;;;;;;3.45;2.00;;;19.30;54.90;;;;;;6225485;28;20376;-68
2022/11/22 07:09:05;;;;;;;3.15;2.15;;;19.30;54.80;;;;;;6233157;28;20167;-69
2022/11/22 07:12:05;;;;;;;3.20;2.40;;;19.30;54.80;;;;;;6236580;28;20045;-69
2022/11/22 07:15:06;;;;;;;2.47;1.85;;;19.30;54.80;;;;;;6222688;28;20033;-66
2022/11/22 07:18:07;;;;;;;3.38;2.25;;;19.30;54.90;;;;;;6240104;28;20053;-67
2022/11/22 07:21:21;;;;;;;4.13;2.45;;;19.30;54.80;;;;;;6246182;28;20082;-67
2022/11/22 07:24:21;;;;;;;4.05;2.53;;;19.30;54.90;;;;;;6222600;28;20390;-66
2022/11/22 07:27:22;;;;;;;3.42;2.50;;;19.30;55.00;;;;;;6221745;28;20022;-66
2022/11/22 07:30:22;;;;;;;2.63;2.10;;;19.30;54.80;;;;;;6222649;28;20125;-66
2022/11/22 07:33:23;;;;;;;3.13;2.30;;;19.30;54.90;;;;;;6239559;28;20021;-67
2022/11/22 07:36:24;;;;;;;4.20;2.50;;;19.30;54.90;;;;;;6245953;28;20419;-67
2022/11/22 07:39:24;;;;;;;2.80;2.20;;;19.30;54.90;;;;;;6221045;28;20030;-68
2022/11/22 07:42:25;;;;;;;3.10;2.30;;;19.30;54.90;;;;;;6230677;28;20056;-69
2022/11/22 07:45:26;;;;;;;2.75;2.17;;;19.30;54.90;;;;;;6246256;28;20029;-69
2022/11/22 07:48:26;;;;;;;4.30;2.40;;;19.30;54.80;;;;;;6229554;28;20018;-68
2022/11/22 07:51:28;;;;;;;3.45;2.47;;;19.30;54.90;;;;;;6221273;28;20041;-68
2022/11/22 07:54:28;;;;;;;2.50;1.90;;;19.30;55.00;;;;;;6244747;28;20199;-68
2022/11/22 07:57:29;;;;;;;3.30;2.38;;;19.30;55.00;;;;;;6238587;28;20038;-69
2022/11/22 08:00:29;;;;;;;4.40;2.58;;;19.40;55.00;;;;;;6221351;28;20030;-68
2022/11/22 08:03:30;;;;;;;3.28;2.20;;;19.30;54.90;;;;;;6235606;28;20033;-69
2022/11/22 08:06:31;;;;;;;3.38;2.35;;;19.30;54.90;;;;;;6244882;28;20040;-69
2022/11/22 08:09:31;;;;;;;3.40;2.40;;;19.40;55.10;;;;;;6226377;28;20027;-69
2022/11/22 08:12:32;;;;;;;3.28;2.38;;;19.30;54.90;;;;;;6239861;28;20026;-68
2022/11/22 08:15:32;;;;;;;3.17;2.25;;;19.30;55.10;;;;;;6221227;28;20045;-68
2022/11/22 08:18:35;;;;;;;3.00;2.25;;;19.30;55.10;;;;;;6234317;28;20431;-68
2022/11/22 08:21:35;;;;;;;3.50;2.50;;;19.30;55.10;;;;;;6245275;28;20029;-69
2022/11/22 08:24:36;;;;;;;3.05;2.13;;;19.30;55.00;;;;;;6224784;28;20068;-68
2022/11/22 08:27:40;;;;;;;4.00;2.60;;;19.30;55.00;;;;;;6220431;28;20330;-69
2022/11/22 08:30:41;;;;;;;3.57;2.47;;;19.30;55.00;;;;;;6221369;28;20148;-70
2022/11/22 08:33:41;;;;;;;4.03;2.60;;;19.30;55.00;;;;;;6232514;28;20021;-69
2022/11/22 08:36:42;;;;;;;3.15;2.13;;;19.40;55.10;;;;;;6245739;28;20026;-69
2022/11/22 08:39:42;;;;;;;3.53;2.65;;;19.30;55.10;;;;;;6225129;28;20022;-68
2022/11/22 08:42:43;;;;;;;3.90;2.50;;;19.30;55.00;;;;;;6223560;28;20029;-69
2022/11/22 08:45:43;;;;;;;3.38;2.40;;;19.30;55.10;;;;;;6245229;28;20487;-68
2022/11/22 08:48:44;;;;;;;3.05;2.22;;;19.30;55.10;;;;;;6234592;28;20029;-69
2022/11/22 08:51:45;;;;;;;2.95;2.17;;;19.30;55.10;;;;;;6220660;28;20099;-68
2022/11/22 08:54:46;;;;;;;4.50;2.65;;;19.30;55.20;;;;;;6238032;28;20042;-69
2022/11/22 08:57:46;;;;;;;3.63;2.55;;;19.40;55.20;;;;;;6243728;28;20028;-68
2022/11/22 09:00:47;;;;;;;3.95;2.65;;;19.30;55.10;;;;;;6220168;28;20575;-68
2022/11/22 09:03:48;;;;;;;4.60;2.47;;;19.30;55.10;;;;;;6229106;28;20393;-69
2022/11/22 09:06:49;;;;;;;3.10;2.30;;;19.30;55.10;;;;;;6244960;28;20029;-70
2022/11/22 09:09:49;;;;;;;3.08;2.40;;;19.30;55.20;;;;;;6233374;28;20561;-69
2022/11/22 09:12:50;;;;;;;3.38;2.53;;;19.30;55.20;;;;;;6245016;28;20033;-68
2022/11/22 09:15:51;;;;;;;3.08;2.38;;;19.30;55.10;;;;;;6220381;28;20030;-69
2022/11/22 09:18:51;;;;;;;2.85;2.20;;;19.30;55.00;;;;;;6227705;28;20714;-68
2022/11/22 09:21:52;;;;;;;3.25;2.50;;;19.40;55.20;;;;;;6244556;28;20025;-68
2022/11/22 09:24:52;;;;;;;3.47;2.35;;;19.30;55.20;;;;;;6229358;28;20024;-69
2022/11/22 09:27:53;;;;;;;3.78;2.60;;;19.30;55.20;;;;;;6220172;28;20054;-68
2022/11/22 09:31:01;;;;;;;3.88;2.83;;;19.30;55.20;;;;;;6242633;28;20029;-68
2022/11/22 09:34:02;;;;;;;3.72;2.63;;;19.30;55.20;;;;;;6238016;28;20064;-68
2022/11/22 09:37:02;;;;;;;3.63;2.70;;;19.30;55.30;;;;;;6219775;28;20032;-68
2022/11/22 09:40:03;;;;;;;4.30;2.78;;;19.30;55.20;;;;;;6234310;28;20032;-68
2022/11/22 09:43:29;;;;;;;3.10;2.40;;;19.30;55.20;;;;;;6244353;28;20496;-69
2022/11/22 09:46:32;;;;;;;;;;;19.30;55.20;;;;;;6245057;28;20029;-69
2022/11/22 09:50:10;;;;;;;3.90;2.92;;;19.30;55.20;;;;;;6244059;28;19949;-69
2022/11/22 09:53:21;;;;;;;3.67;2.75;;;19.40;55.30;;;;;;6244106;28;20045;-68
2022/11/22 09:56:25;;;;;;;4.78;2.75;;;19.40;55.30;;;;;;6221096;28;20034;-69
2022/11/22 09:59:31;;;;;;;4.07;3.00;;;19.40;55.30;;;;;;6226336;28;20030;-69
2022/11/22 10:02:38;;;;;;;4.05;2.88;;;19.40;55.30;;;;;;6244378;28;20484;-68
2022/11/22 10:05:49;;;;;;;3.70;2.78;;;19.30;55.20;;;;;;6228104;28;20025;-68
2022/11/22 10:08:53;;;;;;;4.85;3.13;;;19.30;55.20;;;;;;6220208;28;20417;-69
2022/11/22 10:12:10;;;;;;;5.38;2.78;;;19.30;55.20;;;;;;6221485;28;20061;-69
2022/11/22 10:15:32;;;;;;;4.18;2.88;;;19.40;55.30;;;;;;6233907;28;20116;-68
2022/11/22 10:18:45;;;;;;;4.03;3.00;;;19.30;55.30;;;;;;6248883;28;20441;-69
2022/11/22 10:21:46;;;;;;;4.22;3.00;;;19.30;55.20;;;;;;6224910;28;20034;-69
2022/11/22 10:24:47;;;;;;;4.03;2.92;;;19.30;55.30;;;;;;6229754;28;20380;-69
2022/11/22 10:27:56;;;;;;;4.20;3.00;;;19.40;55.30;;;;;;6247835;28;20097;-69
2022/11/22 10:31:06;;;;;;;3.30;2.58;;;19.40;55.30;;;;;;6233171;28;20028;-69
2022/11/22 10:34:22;;;;;;;5.80;3.20;;;19.30;55.20;;;;;;6222410;28;20032;-69
2022/11/22 10:37:47;;;;;;;4.43;2.80;;;19.40;55.30;;;;;;6223901;28;20022;-67
2022/11/22 10:41:00;;;;;;;4.00;2.97;;;19.40;55.30;;;;;;6223393;28;20488;-68
2022/11/22 10:44:03;;;;;;;3.80;2.90;;;19.30;55.30;;;;;;6223501;28;20479;-68
2022/11/22 10:47:17;;;;;;;5.53;2.88;;;19.30;55.30;;;;;;6223253;28;20109;-68
2022/11/22 10:50:20;;;;;;;4.53;3.22;;;19.40;55.30;;;;;;6223249;28;20030;-69
2022/11/22 10:53:42;;;;;;;3.83;2.97;;;19.40;55.40;;;;;;6222944;28;20131;-69
2022/11/22 10:57:01;;;;;;;4.15;2.88;;;19.40;55.40;;;;;;6222678;28;20044;-68
2022/11/22 11:00:21;;;;;;;5.18;3.45;;;19.40;55.30;;;;;;6233001;28;20022;-68
2022/11/22 11:03:37;;;;;;;4.68;3.10;;;19.40;55.40;;;;;;6223135;28;20026;-69
2022/11/22 11:06:55;;;;;;;3.60;2.65;;;19.40;55.30;;;;;;6238253;28;20087;-69
2022/11/22 11:10:01;;;;;;;5.15;3.22;;;19.40;55.30;;;;;;6241662;28;20451;-69
2022/11/22 11:13:14;;;;;;;4.57;2.80;;;19.30;55.30;;;;;;6247265;28;20112;-68
2022/11/22 11:16:19;;;;;;;4.65;3.10;;;19.40;55.40;;;;;;6236298;28;20500;-69
2022/11/22 11:19:22;;;;;;;;;;;19.40;55.40;;;;;;6222912;28;20168;-68
2022/11/22 11:22:24;;;;;;;4.60;3.10;;;19.40;55.30;;;;;;6242365;28;19905;-69
2022/11/22 11:25:39;;;;;;;7.97;3.47;;;19.40;55.40;;;;;;6243927;28;20022;-68
2022/11/22 11:28:40;;;;;;;3.73;2.37;;;19.40;55.40;;;;;;6222850;28;20445;-66
2022/11/22 11:32:11;;;;;;;5.93;3.40;;;19.40;55.40;;;;;;6224408;28;20079;-65
2022/11/22 11:35:13;;;;;;;5.05;3.58;;;19.40;55.40;;;;;;6221463;28;20456;-67
2022/11/22 11:38:33;;;;;;;5.25;3.58;;;19.40;55.40;;;;;;6246498;28;20140;-67
2022/11/22 11:41:34;;;;;;;4.20;3.30;;;19.40;55.40;;;;;;6236356;28;20033;-68
2022/11/22 11:44:36;;;;;;;5.22;3.67;;;19.40;55.40;;;;;;6221015;28;20017;-69
2022/11/22 11:47:36;;;;;;;4.07;3.08;;;19.40;55.40;;;;;;6239448;28;20061;-69
2022/11/22 11:50:37;;;;;;;4.28;3.35;;;19.40;55.40;;;;;;6245588;28;20033;-69
2022/11/22 11:53:39;;;;;;;4.57;3.63;;;19.40;55.40;;;;;;6221343;28;20115;-68
2022/11/22 11:56:57;;;;;;;6.38;3.60;;;19.40;55.40;;;;;;6230893;28;20026;-69
2022/11/22 12:00:00;;;;;;;4.22;3.00;;;19.40;55.40;;;;;;6246913;28;20036;-67
2022/11/22 12:03:06;;;;;;;4.20;2.95;;;19.40;55.40;;;;;;6228239;28;20343;-68
2022/11/22 12:06:13;;;;;;;4.70;3.22;;;19.40;55.40;;;;;;6225034;28;20014;-69
2022/11/22 12:09:28;;;;;;;4.32;3.20;;;19.40;55.40;;;;;;6247037;28;20119;-68
2022/11/22 12:12:51;;;;;;;5.57;3.50;;;19.40;55.40;;;;;;6234833;28;20037;-68
2022/11/22 12:16:23;;;;;;;5.28;3.15;;;19.40;55.40;;;;;;6245652;28;20488;-67
2022/11/22 12:19:35;;;;;;;5.38;3.30;;;19.40;55.40;;;;;;6245451;28;20025;-68
2022/11/22 12:22:51;;;;;;;5.03;3.38;;;19.40;55.40;;;;;;6245529;28;20384;-69
2022/11/22 12:25:55;;;;;;;3.92;2.95;;;19.40;55.40;;;;;;6245703;28;20017;-68
2022/11/22 12:28:56;;;;;;;4.18;3.13;;;19.40;55.40;;;;;;6222075;28;20093;-69
2022/11/22 12:32:11;;;;;;;5.55;3.38;;;19.30;55.40;;;;;;6227206;28;20102;-68
2022/11/22 12:35:19;;;;;;;5.57;3.55;;;19.40;55.40;;;;;;6245516;28;20542;-68
2022/11/22 12:38:30;;;;;;;5.63;3.45;;;19.40;55.40;;;;;;6227537;28;20117;-69
2022/11/22 12:41:33;;;;;;;4.70;3.28;;;19.40;55.40;;;;;;6222265;28;20030;-68
2022/11/22 12:44:38;;;;;;;5.63;3.45;;;19.40;55.40;;;;;;6244841;28;20479;-69
2022/11/22 12:47:43;;;;;;;5.05;3.30;;;19.40;55.40;;;;;;6235323;28;20036;-68
2022/11/22 12:50:46;;;;;;;5.32;3.35;;;19.40;55.40;;;;;;6220511;28;20500;-68
2022/11/22 12:53:47;;;;;;;5.10;3.20;;;19.40;55.40;;;;;;6238527;28;20084;-69
2022/11/22 12:56:52;;;;;;;5.00;3.35;;;19.40;55.40;;;;;;6243084;28;20041;-69
2022/11/22 13:00:04;;;;;;;5.32;3.45;;;19.40;55.40;;;;;;6220515;28;20050;-69
2022/11/22 13:03:11;;;;;;;5.60;3.78;;;19.40;55.40;;;;;;6231042;28;20471;-68
2022/11/22 13:06:15;;;;;;;5.03;3.50;;;19.40;55.40;;;;;;6244478;28;20021;-69
2022/11/22 13:09:30;;;;;;;4.70;3.30;;;19.40;55.40;;;;;;6224811;28;20018;-69
2022/11/22 13:12:34;;;;;;;5.25;3.58;;;19.40;55.40;;;;;;6239034;28;20030;-69
2022/11/22 13:15:37;;;;;;;5.28;3.10;;;19.40;55.40;;;;;;6220202;28;20091;-68
2022/11/22 13:19:04;;;;;;;5.00;3.47;;;19.40;55.40;;;;;;6233813;28;20026;-68
2022/11/22 13:22:31;;;;;;;5.82;3.50;;;19.40;55.50;;;;;;6240298;28;20492;-69
2022/11/22 13:25:53;;;;;;;4.45;3.25;;;19.40;55.50;;;;;;6219648;28;20029;-69
2022/11/22 13:28:54;;;;;;;4.63;3.08;;;19.40;55.50;;;;;;6234511;28;20057;-68
2022/11/22 13:32:10;;;;;;;4.68;3.55;;;19.40;56.20;;;;;;6244526;28;20017;-69
2022/11/22 13:35:11;;;;;;;4.80;3.38;;;19.40;55.50;;;;;;6244102;28;20032;-69
2022/11/22 13:38:15;;;;;;;5.00;3.30;;;19.40;55.50;;;;;;6229853;28;20026;-69
2022/11/22 13:41:28;;;;;;;4.40;3.35;;;19.40;55.50;;;;;;6244327;28;20519;-70
2022/11/22 13:44:31;;;;;;;5.18;3.70;;;19.40;55.50;;;;;;6226540;28;20444;-69
2022/11/22 13:47:38;;;;;;;4.45;3.15;;;19.40;55.50;;;;;;6222033;28;20068;-69
2022/11/22 13:50:43;;;;;;;4.63;3.38;;;19.40;55.50;;;;;;6248590;28;20480;-68
2022/11/22 13:53:46;;;;;;;5.18;3.38;;;19.40;55.50;;;;;;6238717;28;20576;-67
2022/11/22 13:56:57;;;;;;;5.30;3.40;;;19.40;55.50;;;;;;6224048;28;20041;-70
2022/11/22 14:00:13;;;;;;;5.22;3.75;;;19.40;55.50;;;;;;6243239;28;20104;-69
2022/11/22 14:03:22;;;;;;;4.80;3.35;;;19.40;55.50;;;;;;6243735;28;20026;-69
2022/11/22 14:06:29;;;;;;;4.88;3.28;;;19.40;55.50;;;;;;6224139;28;20049;-68
2022/11/22 14:09:41;;;;;;;4.80;3.35;;;19.40;55.50;;;;;;6234849;28;20025;-68
2022/11/22 14:13:04;;;;;;;6.32;3.90;;;19.40;55.50;;;;;;6223379;28;20034;-68
2022/11/22 14:16:30;;;;;;;5.70;3.88;;;19.40;55.60;;;;;;6223413;28;20389;-68
2022/11/22 14:19:51;;;;;;;4.93;3.65;;;19.40;55.60;;;;;;6223107;28;20030;-68
2022/11/22 14:23:00;;;;;;;4.45;3.33;;;19.40;55.60;;;;;;6223864;28;20104;-69
2022/11/22 14:26:00;;;;;;;5.75;3.75;;;19.40;55.60;;;;;;6225122;28;20032;-68
2022/11/22 14:29:16;;;;;;;5.63;3.80;;;19.40;55.60;;;;;;6223503;28;20396;-68
2022/11/22 14:32:19;;;;;;;5.40;3.70;;;19.40;55.60;;;;;;6223611;28;20026;-68
2022/11/22 14:35:24;;;;;;;5.60;3.50;;;19.40;55.60;;;;;;6240895;28;20500;-67
2022/11/22 14:38:29;;;;;;;5.18;3.50;;;19.40;55.80;;;;;;6246501;28;20075;-67
2022/11/22 14:41:41;;;;;;;5.28;3.70;;;19.40;55.60;;;;;;6223252;28;20045;-68
2022/11/22 14:44:42;;;;;;;5.22;3.65;;;19.40;55.60;;;;;;6233830;28;20021;-68
2022/11/22 14:47:51;;;;;;;4.40;3.20;;;19.40;55.60;;;;;;6247484;28;20029;-69
2022/11/22 14:51:13;;;;;;;4.90;3.28;;;19.40;55.60;;;;;;6227664;28;20018;-66
2022/11/22 14:54:39;;;;;;;4.72;3.28;;;19.40;55.60;;;;;;6228346;28;20041;-68
2022/11/22 14:57:40;;;;;;;5.85;3.75;;;19.40;55.60;;;;;;6247053;28;20033;-68
2022/11/22 15:01:10;;;;;;;5.25;3.30;;;19.40;55.60;;;;;;6229690;28;20472;-68
2022/11/22 15:04:10;;;;;;;5.68;3.45;;;19.40;55.60;;;;;;6227005;28;20060;-68
2022/11/22 15:07:29;;;;;;;5.10;3.55;;;19.40;55.60;;;;;;6247385;28;20018;-68
2022/11/22 15:11:01;;;;;;;5.80;3.47;;;19.40;55.60;;;;;;6243827;28;20105;-68
2022/11/22 15:14:20;;;;;;;5.18;3.70;;;19.40;55.60;;;;;;6245279;28;20029;-67
2022/11/22 15:17:24;;;;;;;5.07;3.50;;;19.40;55.60;;;;;;6222208;28;20018;-68
2022/11/22 15:20:35;;;;;;;6.32;3.65;;;19.40;55.60;;;;;;6233975;28;20515;-68
2022/11/22 15:23:35;;;;;;;4.97;3.67;;;19.40;55.60;;;;;;6246877;28;20184;-68
2022/11/22 15:26:42;;;;;;;5.10;3.22;;;19.40;55.60;;;;;;6225426;28;20022;-67
2022/11/22 15:29:43;;;;;;;5.28;3.72;;;19.40;55.60;;;;;;6227156;28;20021;-68
2022/11/22 15:32:47;;;;;;;5.20;3.42;;;19.40;55.60;;;;;;6246427;28;20026;-68
2022/11/22 15:35:58;;;;;;;4.63;3.25;;;19.40;55.60;;;;;;6233290;28;20033;-67
2022/11/22 15:38:59;;;;;;;4.65;3.33;;;19.40;55.90;;;;;;6221751;28;20037;-68
2022/11/22 15:42:12;;;;;;;4.38;3.22;;;19.40;55.60;;;;;;6243649;28;20041;-68
2022/11/22 15:45:14;;;;;;;4.80;3.20;;;19.40;55.60;;;;;;6239439;28;20133;-68
2022/11/22 15:48:19;;;;;;;4.25;3.22;;;19.40;55.50;;;;;;6221746;28;20030;-69
2022/11/22 15:51:21;;;;;;;5.50;3.08;;;19.40;55.50;;;;;;6237143;28;20472;-68
2022/11/22 15:54:24;;;;;;;6.30;4.25;;;19.40;55.60;;;;;;6245640;28;20558;-68
2022/11/22 15:57:29;;;;;;;5.28;3.63;;;19.40;55.60;;;;;;6222900;28;20420;-66
2022/11/22 16:00:31;;;;;;;5.47;3.70;;;19.40;55.60;;;;;;6228747;28;20476;-68
2022/11/22 16:03:37;;;;;;;5.18;3.47;;;19.40;55.60;;;;;;6245938;28;20025;-68
2022/11/22 16:06:38;;;;;;;5.25;3.47;;;19.40;55.60;;;;;;6230253;28;20057;-68
2022/11/22 16:09:39;;;;;;;4.85;3.35;;;19.40;55.60;;;;;;6225730;28;20021;-69
2022/11/22 16:12:39;;;;;;;5.80;3.83;;;19.40;55.60;;;;;;6221095;28;20030;-68
2022/11/22 16:15:40;;;;;;;5.47;3.75;;;19.40;55.60;;;;;;6227050;28;20036;-69
2022/11/22 16:18:42;;;;;;;5.50;3.83;;;19.40;55.60;;;;;;6245421;28;20029;-68
2022/11/22 16:21:58;;;;;;;4.65;3.38;;;19.40;55.60;;;;;;6230784;28;20388;-68